createdAt,value
2022-07-30T00:01:17.607Z,100296.22
2022-07-30T00:04:19.207Z,100302.25
2022-07-30T00:07:20.667Z,100296.44
2022-07-30T00:10:23.108Z,100298.22
2022-07-30T00:16:26.159Z,100292.63
2022-07-30T00:19:27.776Z,100291.41
2022-07-30T00:22:30.556Z,100285.66
2022-07-30T00:25:32.488Z,100288.41
2022-07-30T00:28:33.962Z,100283.25
2022-07-30T00:31:35.435Z,100291.78
2022-07-30T00:34:37.174Z,100291.22
2022-07-30T00:37:39.100Z,100274.53
2022-07-30T00:40:40.973Z,100278.50
2022-07-30T00:43:43.305Z,100285.81
2022-07-30T00:46:44.745Z,100270.00
2022-07-30T00:49:46.841Z,100266.84
2022-07-30T00:52:48.309Z,100265.63
2022-07-30T00:55:49.898Z,100261.41
2022-07-30T00:58:51.366Z,100265.03
2022-07-30T01:01:53.490Z,100260.81
2022-07-30T01:04:54.980Z,100255.03
2022-07-30T01:07:56.608Z,100254.91
2022-07-30T01:10:58.108Z,100251.97
2022-07-30T01:13:59.624Z,100249.31
2022-07-30T01:17:01.605Z,100246.28
2022-07-30T01:20:11.005Z,100251.00
2022-07-30T01:23:27.848Z,100249.78
2022-07-30T01:26:32.021Z,100249.66
2022-07-30T01:29:35.006Z,100244.66
2022-07-30T01:32:42.069Z,100245.06
2022-07-30T01:35:46.278Z,100249.78
2022-07-30T01:38:51.259Z,100252.34
2022-07-30T01:41:58.002Z,100256.31
2022-07-30T01:45:00.751Z,100266.63
2022-07-30T01:48:05.472Z,100257.59
2022-07-30T01:51:08.217Z,100274.72
2022-07-30T01:54:12.668Z,100265.25
2022-07-30T01:57:15.793Z,100276.16
2022-07-30T02:00:18.128Z,100275.47
2022-07-30T02:03:19.608Z,100275.00
2022-07-30T02:06:32.940Z,100290.50
2022-07-30T02:09:45.589Z,100285.56
2022-07-30T02:12:51.920Z,100289.66
2022-07-30T02:16:18.390Z,100300.06
2022-07-30T02:19:22.151Z,100303.31
2022-07-30T02:22:25.999Z,100302.84
2022-07-30T02:25:28.950Z,100297.59
2022-07-30T02:28:32.719Z,100305.59
2022-07-30T02:31:37.032Z,100302.72
2022-07-30T02:34:41.578Z,100302.38
2022-07-30T02:37:46.933Z,100297.38
2022-07-30T02:40:49.617Z,100303.63
2022-07-30T02:43:53.261Z,100304.28
2022-07-30T02:46:57.568Z,100310.72
2022-07-30T02:50:00.710Z,100313.72
2022-07-30T02:53:05.204Z,100316.66
2022-07-30T02:56:09.450Z,100324.00
2022-07-30T02:59:12.267Z,100317.72
2022-07-30T03:02:14.770Z,100318.22
2022-07-30T03:05:16.393Z,100325.56
2022-07-30T03:08:19.856Z,100324.97
2022-07-30T03:11:23.961Z,100324.56
2022-07-30T03:14:25.476Z,100331.47
2022-07-30T03:17:31.643Z,100328.22
2022-07-30T03:20:35.393Z,100328.72
2022-07-30T03:23:37.974Z,100327.97
2022-07-30T03:26:40.238Z,100326.63
2022-07-30T03:29:42.802Z,100336.41
2022-07-30T03:32:45.255Z,100342.50
2022-07-30T03:35:47.593Z,100342.56
2022-07-30T03:38:50.060Z,100337.31
2022-07-30T03:41:53.749Z,100332.50
2022-07-30T03:44:57.321Z,100333.91
2022-07-30T03:47:59.198Z,100334.03
2022-07-30T03:51:03.967Z,100345.75
2022-07-30T03:54:13.191Z,100341.91
2022-07-30T03:57:17.696Z,100342.34
2022-07-30T04:00:22.238Z,100336.28
2022-07-30T04:03:27.976Z,100350.22
2022-07-30T04:06:29.457Z,100351.31
2022-07-30T04:09:30.951Z,100346.06
2022-07-30T04:12:32.747Z,100354.06
2022-07-30T04:16:37.718Z,100349.47
2022-07-30T04:19:09.466Z,100355.19
2022-07-30T04:22:13.084Z,100360.91
2022-07-30T04:25:24.188Z,100360.59
2022-07-30T04:28:27.671Z,100361.28
2022-07-30T04:31:37.421Z,100364.38
2022-07-30T04:34:47.142Z,100365.94
2022-07-30T04:37:48.592Z,100368.94
2022-07-30T04:40:50.063Z,100382.50
2022-07-30T04:43:52.246Z,100385.63
2022-07-30T04:46:53.888Z,100393.41
2022-07-30T04:49:56.381Z,100394.91
2022-07-30T04:52:59.128Z,100396.09
2022-07-30T04:56:02.386Z,100408.59
2022-07-30T04:59:05.320Z,100407.38
2022-07-30T05:02:08.501Z,100407.44
2022-07-30T05:05:12.529Z,100422.47
2022-07-30T05:08:14.436Z,100419.28
2022-07-30T05:11:16.192Z,100419.69
2022-07-30T05:14:17.676Z,100420.13
2022-07-30T05:17:19.214Z,100422.13
2022-07-30T05:20:20.643Z,100416.97
2022-07-30T05:23:23.338Z,100420.72
2022-07-30T05:26:27.594Z,100423.41
2022-07-30T05:29:29.413Z,100424.81
2022-07-30T05:32:31.569Z,100430.63
2022-07-30T05:35:33.893Z,100428.00
2022-07-30T05:38:35.841Z,100439.22
2022-07-30T05:41:37.277Z,100430.56
2022-07-30T05:44:38.709Z,100431.41
2022-07-30T05:47:40.093Z,100442.59
2022-07-30T05:50:41.542Z,100442.69
2022-07-30T05:53:45.080Z,100435.19
2022-07-30T05:56:46.551Z,100439.63
2022-07-30T05:59:49.870Z,100441.06
2022-07-30T06:02:51.359Z,100438.22
2022-07-30T06:05:52.812Z,100433.13
2022-07-30T06:08:56.653Z,100445.31
2022-07-30T06:11:58.082Z,100447.91
2022-07-30T06:14:59.645Z,100444.06
2022-07-30T06:18:01.917Z,100445.00
2022-07-30T06:21:03.895Z,100443.81
2022-07-30T06:24:05.615Z,100450.06
2022-07-30T06:27:07.070Z,100456.84
2022-07-30T06:30:09.948Z,100454.66
2022-07-30T06:33:12.277Z,100460.94
2022-07-30T06:36:14.469Z,100459.59
2022-07-30T06:39:53.798Z,100462.09
2022-07-30T06:42:39.249Z,100455.00
2022-07-30T06:45:41.019Z,100464.75
2022-07-30T06:48:42.859Z,100458.72
2022-07-30T06:51:45.979Z,100462.97
2022-07-30T06:54:50.496Z,100470.72
2022-07-30T06:57:52.121Z,100465.47
2022-07-30T07:00:53.648Z,100474.72
2022-07-30T07:03:57.546Z,100474.81
2022-07-30T07:06:59.532Z,100485.44
2022-07-30T07:10:13.563Z,100480.13
2022-07-30T07:13:15.346Z,100477.25
2022-07-30T07:16:16.940Z,100481.31
2022-07-30T07:20:00.020Z,100486.25
2022-07-30T07:22:39.982Z,100486.00
2022-07-30T07:25:43.302Z,100491.41
2022-07-30T07:28:44.735Z,100493.19
2022-07-30T07:32:06.112Z,100490.16
2022-07-30T07:35:08.126Z,100493.50
2022-07-30T07:38:09.572Z,100492.88
2022-07-30T07:41:11.017Z,100489.47
2022-07-30T07:44:12.496Z,100484.75
2022-07-30T07:47:14.336Z,100484.00
2022-07-30T07:50:18.191Z,100495.16
2022-07-30T07:53:19.706Z,100485.22
2022-07-30T07:56:21.211Z,100490.06
2022-07-30T07:59:23.397Z,100485.44
2022-07-30T08:02:28.577Z,100496.34
2022-07-30T08:06:00.848Z,100495.69
2022-07-30T08:08:51.563Z,100488.91
2022-07-30T08:11:53.166Z,100493.59
2022-07-30T08:14:54.733Z,100487.63
2022-07-30T08:17:56.182Z,100496.28
2022-07-30T08:20:57.633Z,100499.66
2022-07-30T08:23:59.148Z,100492.88
2022-07-30T08:27:00.809Z,100497.03
2022-07-30T08:30:05.351Z,100497.53
2022-07-30T08:33:06.849Z,100489.44
2022-07-30T08:36:09.639Z,100496.66
2022-07-30T08:39:11.576Z,100497.38
2022-07-30T08:42:14.543Z,100491.03
2022-07-30T08:45:17.622Z,100485.34
2022-07-30T08:48:21.502Z,100479.78
2022-07-30T08:51:23.866Z,100484.66
2022-07-30T08:54:25.572Z,100480.03
2022-07-30T08:57:30.701Z,100488.94
2022-07-30T09:00:32.181Z,100480.78
2022-07-30T09:03:34.384Z,100481.75
2022-07-30T09:06:36.416Z,100484.84
2022-07-30T09:09:37.942Z,100478.00
2022-07-30T09:12:39.656Z,100481.22
2022-07-30T09:15:41.274Z,100488.50
2022-07-30T09:18:46.614Z,100489.19
2022-07-30T09:22:01.507Z,100486.97
2022-07-30T09:25:03.157Z,100492.06
2022-07-30T09:28:15.870Z,100488.03
2022-07-30T09:31:20.153Z,100491.94
2022-07-30T09:34:33.796Z,100483.19
2022-07-30T09:37:35.906Z,100486.59
2022-07-30T09:40:37.651Z,100495.59
2022-07-30T09:43:47.306Z,100496.16
2022-07-30T09:46:51.536Z,100495.53
2022-07-30T09:50:07.313Z,100494.78
2022-07-30T09:53:09.855Z,100490.38
2022-07-30T09:56:25.509Z,100482.16
2022-07-30T09:59:27.962Z,100487.34
2022-07-30T10:02:36.682Z,100486.59
2022-07-30T10:05:38.494Z,100483.59
2022-07-30T10:08:46.243Z,100486.75
2022-07-30T10:11:49.542Z,100478.56
2022-07-30T10:14:53.602Z,100488.50
2022-07-30T10:17:56.107Z,100471.97
2022-07-30T10:20:58.739Z,100468.78
2022-07-30T10:24:01.641Z,100461.88
2022-07-30T10:27:06.216Z,100464.59
2022-07-30T10:30:08.344Z,100455.34
2022-07-30T10:33:34.929Z,100450.72
2022-07-30T10:36:37.768Z,100469.13
2022-07-30T10:39:47.411Z,100457.22
2022-07-30T10:43:17.405Z,100462.06
2022-07-30T10:46:38.263Z,100454.97
2022-07-30T10:49:43.260Z,100445.06
2022-07-30T10:52:53.785Z,100453.03
2022-07-30T10:56:11.205Z,100451.97
2022-07-30T10:59:12.810Z,100444.06
2022-07-30T11:02:18.406Z,100448.22
2022-07-30T11:05:27.129Z,100440.75
2022-07-30T11:08:48.465Z,100445.72
2022-07-30T11:12:02.254Z,100442.97
2022-07-30T11:15:18.486Z,100442.25
2022-07-30T11:18:21.480Z,100443.59
2022-07-30T11:21:26.541Z,100440.91
2022-07-30T11:24:48.955Z,100437.97
2022-07-30T11:27:50.934Z,100430.22
2022-07-30T11:30:53.715Z,100435.63
2022-07-30T11:34:18.056Z,100434.75
2022-07-30T11:37:22.116Z,100421.25
2022-07-30T11:40:28.631Z,100425.91
2022-07-30T11:43:36.855Z,100420.56
2022-07-30T11:46:48.683Z,100422.13
2022-07-30T11:49:50.117Z,100411.25
2022-07-30T11:52:57.477Z,100407.31
2022-07-30T11:56:00.927Z,100409.00
2022-07-30T11:59:07.784Z,100412.47
2022-07-30T12:02:09.249Z,100410.41
2022-07-30T12:05:11.316Z,100403.47
2022-07-30T12:08:33.451Z,100400.66
2022-07-30T12:11:37.167Z,100397.06
2022-07-30T12:14:42.002Z,100399.16
2022-07-30T12:17:44.795Z,100395.13
2022-07-30T12:20:53.913Z,100402.94
2022-07-30T12:24:00.619Z,100409.53
2022-07-30T12:27:06.463Z,100404.22
2022-07-30T12:30:11.509Z,100397.91
2022-07-30T12:33:14.197Z,100399.00
2022-07-30T12:36:33.047Z,100391.22
2022-07-30T12:39:34.513Z,100391.13
2022-07-30T12:42:36.432Z,100384.63
2022-07-30T12:45:52.060Z,100378.72
2022-07-30T12:49:16.089Z,100380.53
2022-07-30T12:52:28.433Z,100384.50
2022-07-30T12:55:36.443Z,100374.25
2022-07-30T12:58:38.340Z,100370.19
2022-07-30T13:01:45.750Z,100371.13
2022-07-30T13:05:11.107Z,100368.66
2022-07-30T13:08:13.568Z,100361.81
2022-07-30T13:11:16.289Z,100351.66
2022-07-30T13:14:17.807Z,100370.53
2022-07-30T13:17:19.300Z,100373.28
2022-07-30T13:20:21.081Z,100376.59
2022-07-30T13:23:23.536Z,100369.50
2022-07-30T13:26:25.061Z,100374.28
2022-07-30T13:29:26.512Z,100369.41
2022-07-30T13:32:28.051Z,100350.19
2022-07-30T13:35:29.542Z,100349.78
2022-07-30T13:38:31.244Z,100352.88
2022-07-30T13:41:34.062Z,100348.59
2022-07-30T13:44:38.432Z,100356.09
2022-07-30T13:47:39.944Z,100348.53
2022-07-30T13:50:42.460Z,100349.03
2022-07-30T13:53:43.927Z,100350.94
2022-07-30T13:56:45.392Z,100343.84
2022-07-30T13:59:46.843Z,100343.47
2022-07-30T14:02:48.442Z,100346.66
2022-07-30T14:05:49.898Z,100342.78
2022-07-30T14:08:51.467Z,100338.00
2022-07-30T14:11:54.099Z,100330.22
2022-07-30T14:14:55.658Z,100339.06
2022-07-30T14:17:58.165Z,100327.59
2022-07-30T14:21:00.419Z,100338.31
2022-07-30T14:24:01.881Z,100338.19
2022-07-30T14:27:05.683Z,100340.03
2022-07-30T14:30:09.426Z,100340.91
2022-07-30T14:33:11.283Z,100327.34
2022-07-30T14:36:12.880Z,100329.31
2022-07-30T14:39:14.738Z,100324.13
2022-07-30T14:42:17.089Z,100325.09
2022-07-30T14:45:18.914Z,100323.63
2022-07-30T14:48:20.513Z,100323.78
2022-07-30T14:51:26.306Z,100315.31
2022-07-30T14:54:28.654Z,100330.44
2022-07-30T14:57:30.203Z,100329.94
2022-07-30T15:00:35.665Z,100332.75
2022-07-30T15:03:50.599Z,100334.19
2022-07-30T15:06:52.262Z,100328.88
2022-07-30T15:09:54.376Z,100326.44
2022-07-30T15:12:56.843Z,100320.31
2022-07-30T15:15:59.488Z,100326.09
2022-07-30T15:19:00.938Z,100335.69
2022-07-30T15:22:03.388Z,100338.66
2022-07-30T15:25:07.996Z,100322.28
2022-07-30T15:28:09.445Z,100326.53
2022-07-30T15:31:10.900Z,100327.84
2022-07-30T15:34:12.544Z,100329.13
2022-07-30T15:37:15.438Z,100332.56
2022-07-30T15:40:17.305Z,100332.09
2022-07-30T15:43:18.803Z,100328.22
2022-07-30T15:46:20.322Z,100331.31
2022-07-30T15:49:22.149Z,100322.47
2022-07-30T15:52:23.884Z,100328.19
2022-07-30T15:55:25.436Z,100324.94
2022-07-30T15:58:27.577Z,100332.63
2022-07-30T16:01:29.141Z,100330.25
2022-07-30T16:04:32.899Z,100331.22
2022-07-30T16:07:34.375Z,100329.50
2022-07-30T16:10:35.866Z,100324.41
2022-07-30T16:13:38.245Z,100331.78
2022-07-30T16:16:39.651Z,100335.69
2022-07-30T16:19:44.719Z,100334.03
2022-07-30T16:22:47.390Z,100333.66
2022-07-30T16:25:48.841Z,100331.13
2022-07-30T16:28:50.873Z,100333.44
2022-07-30T16:31:52.621Z,100322.25
2022-07-30T16:34:54.278Z,100319.06
2022-07-30T16:37:57.863Z,100321.34
2022-07-30T16:41:00.414Z,100326.84
2022-07-30T16:44:02.147Z,100332.44
2022-07-30T16:47:03.774Z,100320.81
2022-07-30T16:50:05.841Z,100323.34
2022-07-30T16:53:11.866Z,100325.28
2022-07-30T16:56:16.378Z,100323.94
2022-07-30T16:59:19.259Z,100323.41
2022-07-30T17:02:20.646Z,100321.81
2022-07-30T17:05:22.135Z,100334.75
2022-07-30T17:08:24.641Z,100331.38
2022-07-30T17:11:46.929Z,100317.91
2022-07-30T17:14:48.158Z,100321.09
2022-07-30T17:17:49.588Z,100328.00
2022-07-30T17:20:52.935Z,100329.00
2022-07-30T17:23:54.545Z,100326.00
2022-07-30T17:26:56.446Z,100329.53
2022-07-30T17:29:58.093Z,100331.81
2022-07-30T17:32:59.668Z,100330.28
2022-07-30T17:36:01.246Z,100339.94
2022-07-30T17:39:03.365Z,100345.03
2022-07-30T17:42:04.917Z,100351.22
2022-07-30T17:45:07.783Z,100356.56
2022-07-30T17:48:09.290Z,100351.56
2022-07-30T17:51:10.730Z,100345.94
2022-07-30T17:54:12.179Z,100343.38
2022-07-30T17:57:15.120Z,100340.63
2022-07-30T18:00:17.034Z,100346.47
2022-07-30T18:03:18.591Z,100344.47
2022-07-30T18:06:22.087Z,100354.97
2022-07-30T18:09:24.184Z,100349.47
2022-07-30T18:12:25.702Z,100355.69
2022-07-30T18:15:28.286Z,100361.75
2022-07-30T18:18:29.653Z,100372.56
2022-07-30T18:21:31.150Z,100369.44
2022-07-30T18:24:33.085Z,100368.16
2022-07-30T18:27:34.970Z,100367.19
2022-07-30T18:30:36.713Z,100370.41
2022-07-30T18:33:38.272Z,100366.13
2022-07-30T18:36:39.730Z,100366.00
2022-07-30T18:39:41.159Z,100370.88
2022-07-30T18:42:42.799Z,100374.16
2022-07-30T18:45:45.886Z,100379.91
2022-07-30T18:48:48.462Z,100375.75
2022-07-30T18:51:50.026Z,100378.50
2022-07-30T18:54:51.490Z,100376.03
2022-07-30T18:57:52.996Z,100381.03
2022-07-30T19:00:54.756Z,100383.41
2022-07-30T19:03:56.178Z,100389.75
2022-07-30T19:06:57.656Z,100395.91
2022-07-30T19:09:59.997Z,100402.91
2022-07-30T19:13:02.275Z,100397.94
2022-07-30T19:16:04.088Z,100392.75
2022-07-30T19:19:05.758Z,100401.81
2022-07-30T19:22:07.161Z,100405.13
2022-07-30T19:25:11.055Z,100414.00
2022-07-30T19:28:13.860Z,100419.13
2022-07-30T19:31:16.332Z,100419.94
2022-07-30T19:34:17.850Z,100421.84
2022-07-30T19:37:20.132Z,100431.81
2022-07-30T19:40:21.777Z,100429.97
2022-07-30T19:46:46.635Z,100436.28
2022-07-30T19:49:50.288Z,100434.47
2022-07-30T19:52:54.751Z,100449.59
2022-07-30T19:55:56.350Z,100446.75
2022-07-30T19:59:00.114Z,100459.94
2022-07-30T20:02:01.551Z,100463.50
2022-07-30T20:08:25.992Z,100473.59
2022-07-30T20:11:35.863Z,100472.25
2022-07-30T20:14:37.938Z,100471.38
2022-07-30T20:17:46.409Z,100471.91
2022-07-30T20:20:48.535Z,100474.13
2022-07-30T20:23:52.664Z,100480.31
2022-07-30T20:26:54.176Z,100471.47
2022-07-30T20:29:56.742Z,100481.34
2022-07-30T20:32:58.562Z,100479.38
2022-07-30T20:36:00.022Z,100484.50
2022-07-30T20:39:01.505Z,100484.31
2022-07-30T20:42:09.312Z,100479.78
2022-07-30T20:45:12.187Z,100465.81
2022-07-30T20:48:17.513Z,100465.13
2022-07-30T20:51:33.466Z,100476.19
2022-07-30T20:54:36.017Z,100484.59
2022-07-30T20:58:00.329Z,100471.34
2022-07-30T21:01:07.057Z,100485.03
2022-07-30T21:04:09.139Z,100478.97
2022-07-30T21:07:10.658Z,100476.81
2022-07-30T21:10:12.398Z,100481.66
2022-07-30T21:13:16.176Z,100482.66
2022-07-30T21:16:17.653Z,100473.22
2022-07-30T21:19:19.163Z,100474.00
2022-07-30T21:22:24.357Z,100474.19
2022-07-30T21:25:32.428Z,100489.81
2022-07-30T21:28:36.216Z,100485.84
2022-07-30T21:32:00.630Z,100485.47
2022-07-30T21:35:01.504Z,100484.19
2022-07-30T21:38:10.026Z,100483.41
2022-07-30T21:41:14.151Z,100476.28
2022-07-30T21:44:17.414Z,100482.75
2022-07-30T21:47:18.989Z,100477.72
2022-07-30T21:50:20.616Z,100476.06
2022-07-30T21:53:29.641Z,100484.31
2022-07-30T21:56:45.183Z,100488.28
2022-07-30T21:59:46.628Z,100490.16
2022-07-30T22:02:53.369Z,100497.75
2022-07-30T22:05:56.257Z,100503.41
2022-07-30T22:08:57.979Z,100494.81
2022-07-30T22:12:00.935Z,100506.09
2022-07-30T22:15:04.045Z,100491.41
2022-07-30T22:18:06.910Z,100504.25
2022-07-30T22:21:08.478Z,100500.63
2022-07-30T22:24:10.019Z,100507.34
2022-07-30T22:27:40.022Z,100510.25
2022-07-30T22:30:52.943Z,100509.50
2022-07-30T22:33:55.069Z,100508.03
2022-07-30T22:36:59.060Z,100511.25
2022-07-30T22:40:00.568Z,100504.03
2022-07-30T22:43:07.652Z,100513.25
2022-07-30T22:46:30.005Z,100514.00
2022-07-30T22:49:49.817Z,100504.63
2022-07-30T22:52:58.484Z,100497.88
2022-07-30T22:56:15.590Z,100501.75
2022-07-30T22:59:17.438Z,100503.19
2022-07-30T23:02:42.295Z,100498.06
2022-07-30T23:05:55.284Z,100505.09
2022-07-30T23:09:00.095Z,100503.72
2022-07-30T23:12:01.815Z,100503.53
2022-07-30T23:12:15.734Z,100474.25
2022-07-30T23:12:16.424Z,100426.13
2022-07-30T23:15:05.348Z,100506.97
2022-07-30T23:18:06.794Z,100499.78
2022-07-30T23:21:08.293Z,100498.16
2022-07-30T23:24:10.714Z,100495.03
2022-07-30T23:27:12.816Z,100501.53
2022-07-30T23:30:14.460Z,100490.09
2022-07-30T23:33:18.653Z,100490.00
2022-07-30T23:39:21.663Z,100484.72
2022-07-30T23:42:23.228Z,100482.97
2022-07-30T23:45:24.723Z,100492.75
2022-07-30T23:48:26.295Z,100497.63
2022-07-30T23:51:33.182Z,100495.56
2022-07-30T23:54:35.165Z,100497.41
2022-07-30T23:57:37.639Z,100486.94
